sensor_id;sensor_type;location;lat;lon;timestamp;P1;durP1;ratioP1;P2;durP2;ratioP2
75537;SDS011;64121;48.666;8.114;2023-04-01T00:01:33;2.65;;;0.80;;
75537;SDS011;64121;48.666;8.114;2023-04-01T00:03:59;3.60;;;0.60;;
75537;SDS011;64121;48.666;8.114;2023-04-01T00:06:24;3.63;;;0.68;;
75537;SDS011;64121;48.666;8.114;2023-04-01T00:08:49;3.20;;;0.60;;
75537;SDS011;64121;48.666;8.114;2023-04-01T00:11:15;2.28;;;0.50;;
75537;SDS011;64121;48.666;8.114;2023-04-01T00:13:41;1.77;;;0.68;;
75537;SDS011;64121;48.666;8.114;2023-04-01T00:16:08;3.67;;;1.20;;
75537;SDS011;64121;48.666;8.114;2023-04-01T00:18:34;3.60;;;1.05;;
75537;SDS011;64121;48.666;8.114;2023-04-01T00:20:59;2.63;;;0.60;;
75537;SDS011;64121;48.666;8.114;2023-04-01T00:23:25;1.35;;;0.70;;
75537;SDS011;64121;48.666;8.114;2023-04-01T00:25:50;0.75;;;0.47;;
75537;SDS011;64121;48.666;8.114;2023-04-01T00:28:16;2.17;;;0.60;;
75537;SDS011;64121;48.666;8.114;2023-04-01T00:30:41;1.65;;;0.40;;
75537;SDS011;64121;48.666;8.114;2023-04-01T00:33:08;1.63;;;0.40;;
75537;SDS011;64121;48.666;8.114;2023-04-01T00:35:34;2.67;;;0.80;;
75537;SDS011;64121;48.666;8.114;2023-04-01T00:37:59;1.13;;;0.30;;
75537;SDS011;64121;48.666;8.114;2023-04-01T00:40:26;2.67;;;0.50;;
75537;SDS011;64121;48.666;8.114;2023-04-01T00:42:53;0.75;;;0.30;;
75537;SDS011;64121;48.666;8.114;2023-04-01T00:45:23;5.28;;;0.57;;
75537;SDS011;64121;48.666;8.114;2023-04-01T00:47:52;1.08;;;0.47;;
75537;SDS011;64121;48.666;8.114;2023-04-01T00:50:20;1.55;;;0.57;;
75537;SDS011;64121;48.666;8.114;2023-04-01T00:52:47;1.77;;;0.40;;
75537;SDS011;64121;48.666;8.114;2023-04-01T00:55:13;1.60;;;0.20;;
75537;SDS011;64121;48.666;8.114;2023-04-01T00:57:41;2.35;;;0.40;;
75537;SDS011;64121;48.666;8.114;2023-04-01T01:00:11;0.85;;;0.25;;
75537;SDS011;64121;48.666;8.114;2023-04-01T01:02:37;0.93;;;0.40;;
75537;SDS011;64121;48.666;8.114;2023-04-01T01:05:04;0.98;;;0.30;;
75537;SDS011;64121;48.666;8.114;2023-04-01T01:07:32;0.35;;;0.20;;
75537;SDS011;64121;48.666;8.114;2023-04-01T01:10:06;1.38;;;0.20;;
75537;SDS011;64121;48.666;8.114;2023-04-01T01:12:38;1.73;;;0.20;;
75537;SDS011;64121;48.666;8.114;2023-04-01T01:15:08;0.30;;;0.30;;
75537;SDS011;64121;48.666;8.114;2023-04-01T01:17:44;1.63;;;0.30;;
75537;SDS011;64121;48.666;8.114;2023-04-01T01:20:20;1.02;;;0.20;;
75537;SDS011;64121;48.666;8.114;2023-04-01T01:23:21;0.47;;;0.22;;
75537;SDS011;64121;48.666;8.114;2023-04-01T01:26:07;0.20;;;0.20;;
75537;SDS011;64121;48.666;8.114;2023-04-01T01:28:47;0.55;;;0.20;;
75537;SDS011;64121;48.666;8.114;2023-04-01T01:31:21;0.20;;;0.10;;
75537;SDS011;64121;48.666;8.114;2023-04-01T01:33:52;0.32;;;0.10;;
75537;SDS011;64121;48.666;8.114;2023-04-01T01:36:32;0.32;;;0.30;;
75537;SDS011;64121;48.666;8.114;2023-04-01T01:38:58;0.57;;;0.20;;
75537;SDS011;64121;48.666;8.114;2023-04-01T01:41:23;0.55;;;0.20;;
75537;SDS011;64121;48.666;8.114;2023-04-01T01:43:51;0.20;;;0.20;;
75537;SDS011;64121;48.666;8.114;2023-04-01T01:46:19;0.20;;;0.20;;
75537;SDS011;64121;48.666;8.114;2023-04-01T01:48:47;0.25;;;0.15;;
75537;SDS011;64121;48.666;8.114;2023-04-01T01:51:15;0.20;;;0.20;;
75537;SDS011;64121;48.666;8.114;2023-04-01T01:53:43;0.43;;;0.10;;
75537;SDS011;64121;48.666;8.114;2023-04-01T01:56:09;0.10;;;0.10;;
75537;SDS011;64121;48.666;8.114;2023-04-01T01:58:35;0.35;;;0.25;;
75537;SDS011;64121;48.666;8.114;2023-04-01T02:01:04;0.28;;;0.20;;
75537;SDS011;64121;48.666;8.114;2023-04-01T02:03:33;0.20;;;0.20;;
75537;SDS011;64121;48.666;8.114;2023-04-01T02:06:02;0.40;;;0.22;;
75537;SDS011;64121;48.666;8.114;2023-04-01T02:08:33;0.63;;;0.30;;
75537;SDS011;64121;48.666;8.114;2023-04-01T02:11:03;0.80;;;0.32;;
75537;SDS011;64121;48.666;8.114;2023-04-01T02:13:31;0.47;;;0.20;;
75537;SDS011;64121;48.666;8.114;2023-04-01T02:16:03;0.28;;;0.28;;
75537;SDS011;64121;48.666;8.114;2023-04-01T02:18:36;1.50;;;0.30;;
75537;SDS011;64121;48.666;8.114;2023-04-01T02:21:03;0.57;;;0.20;;
75537;SDS011;64121;48.666;8.114;2023-04-01T02:23:31;0.65;;;0.20;;
75537;SDS011;64121;48.666;8.114;2023-04-01T02:25:58;0.10;;;0.10;;
75537;SDS011;64121;48.666;8.114;2023-04-01T02:28:25;0.75;;;0.20;;
75537;SDS011;64121;48.666;8.114;2023-04-01T02:30:53;0.75;;;0.20;;
75537;SDS011;64121;48.666;8.114;2023-04-01T02:33:19;0.77;;;0.30;;
75537;SDS011;64121;48.666;8.114;2023-04-01T02:35:45;0.68;;;0.20;;
75537;SDS011;64121;48.666;8.114;2023-04-01T02:38:11;0.75;;;0.20;;
75537;SDS011;64121;48.666;8.114;2023-04-01T02:40:44;0.22;;;0.10;;
75537;SDS011;64121;48.666;8.114;2023-04-01T02:43:11;0.85;;;0.30;;
75537;SDS011;64121;48.666;8.114;2023-04-01T02:45:38;0.35;;;0.17;;
75537;SDS011;64121;48.666;8.114;2023-04-01T02:48:04;0.28;;;0.20;;
75537;SDS011;64121;48.666;8.114;2023-04-01T02:50:29;0.73;;;0.20;;
75537;SDS011;64121;48.666;8.114;2023-04-01T02:52:55;1.20;;;0.30;;
75537;SDS011;64121;48.666;8.114;2023-04-01T02:55:20;0.45;;;0.20;;
75537;SDS011;64121;48.666;8.114;2023-04-01T02:57:45;0.40;;;0.30;;
75537;SDS011;64121;48.666;8.114;2023-04-01T03:00:11;0.45;;;0.30;;
75537;SDS011;64121;48.666;8.114;2023-04-01T03:02:39;0.52;;;0.20;;
75537;SDS011;64121;48.666;8.114;2023-04-01T03:05:05;1.10;;;0.60;;
75537;SDS011;64121;48.666;8.114;2023-04-01T03:07:30;0.95;;;0.30;;
75537;SDS011;64121;48.666;8.114;2023-04-01T03:09:56;0.25;;;0.25;;
75537;SDS011;64121;48.666;8.114;2023-04-01T03:12:21;1.10;;;0.30;;
75537;SDS011;64121;48.666;8.114;2023-04-01T03:14:47;1.35;;;0.32;;
75537;SDS011;64121;48.666;8.114;2023-04-01T03:17:12;2.35;;;0.60;;
75537;SDS011;64121;48.666;8.114;2023-04-01T03:19:39;1.35;;;0.30;;
75537;SDS011;64121;48.666;8.114;2023-04-01T03:22:04;0.85;;;0.40;;
75537;SDS011;64121;48.666;8.114;2023-04-01T03:24:29;0.63;;;0.30;;
75537;SDS011;64121;48.666;8.114;2023-04-01T03:26:55;2.10;;;0.50;;
75537;SDS011;64121;48.666;8.114;2023-04-01T03:29:20;2.47;;;0.50;;
75537;SDS011;64121;48.666;8.114;2023-04-01T03:31:46;1.50;;;0.38;;
75537;SDS011;64121;48.666;8.114;2023-04-01T03:34:11;2.50;;;0.50;;
75537;SDS011;64121;48.666;8.114;2023-04-01T03:36:38;3.38;;;0.70;;
75537;SDS011;64121;48.666;8.114;2023-04-01T03:39:03;3.05;;;0.50;;
75537;SDS011;64121;48.666;8.114;2023-04-01T03:41:29;2.20;;;0.73;;
75537;SDS011;64121;48.666;8.114;2023-04-01T03:43:54;2.28;;;0.80;;
75537;SDS011;64121;48.666;8.114;2023-04-01T03:46:20;2.80;;;0.63;;
75537;SDS011;64121;48.666;8.114;2023-04-01T03:48:45;2.05;;;0.70;;
75537;SDS011;64121;48.666;8.114;2023-04-01T03:51:11;3.08;;;0.80;;
75537;SDS011;64121;48.666;8.114;2023-04-01T03:53:37;0.82;;;0.35;;
75537;SDS011;64121;48.666;8.114;2023-04-01T03:56:03;3.33;;;0.47;;
75537;SDS011;64121;48.666;8.114;2023-04-01T03:58:29;1.67;;;0.50;;
75537;SDS011;64121;48.666;8.114;2023-04-01T04:00:54;2.22;;;0.57;;
75537;SDS011;64121;48.666;8.114;2023-04-01T04:03:20;3.17;;;0.77;;
75537;SDS011;64121;48.666;8.114;2023-04-01T04:05:46;3.30;;;0.60;;
75537;SDS011;64121;48.666;8.114;2023-04-01T04:08:12;3.60;;;0.82;;
75537;SDS011;64121;48.666;8.114;2023-04-01T04:10:39;2.20;;;0.45;;
75537;SDS011;64121;48.666;8.114;2023-04-01T04:13:04;2.30;;;0.50;;
75537;SDS011;64121;48.666;8.114;2023-04-01T04:15:29;1.17;;;0.43;;
75537;SDS011;64121;48.666;8.114;2023-04-01T04:17:55;2.72;;;0.40;;
75537;SDS011;64121;48.666;8.114;2023-04-01T04:20:20;2.83;;;0.75;;
75537;SDS011;64121;48.666;8.114;2023-04-01T04:22:46;3.22;;;0.40;;
75537;SDS011;64121;48.666;8.114;2023-04-01T04:25:11;0.63;;;0.30;;
75537;SDS011;64121;48.666;8.114;2023-04-01T04:27:38;0.70;;;0.30;;
75537;SDS011;64121;48.666;8.114;2023-04-01T04:30:04;1.90;;;0.57;;
75537;SDS011;64121;48.666;8.114;2023-04-01T04:32:31;2.67;;;0.50;;
75537;SDS011;64121;48.666;8.114;2023-04-01T04:34:57;1.38;;;0.35;;
75537;SDS011;64121;48.666;8.114;2023-04-01T04:37:22;1.30;;;0.30;;
75537;SDS011;64121;48.666;8.114;2023-04-01T04:39:47;2.25;;;0.50;;
75537;SDS011;64121;48.666;8.114;2023-04-01T04:42:13;0.70;;;0.30;;
75537;SDS011;64121;48.666;8.114;2023-04-01T04:44:39;0.30;;;0.20;;
75537;SDS011;64121;48.666;8.114;2023-04-01T04:47:05;1.08;;;0.40;;
75537;SDS011;64121;48.666;8.114;2023-04-01T04:49:30;0.20;;;0.20;;
75537;SDS011;64121;48.666;8.114;2023-04-01T04:51:56;0.52;;;0.30;;
75537;SDS011;64121;48.666;8.114;2023-04-01T04:54:21;1.48;;;0.28;;
75537;SDS011;64121;48.666;8.114;2023-04-01T04:56:46;0.63;;;0.30;;
75537;SDS011;64121;48.666;8.114;2023-04-01T04:59:12;0.60;;;0.20;;
75537;SDS011;64121;48.666;8.114;2023-04-01T05:01:39;2.03;;;0.30;;
75537;SDS011;64121;48.666;8.114;2023-04-01T05:04:04;1.08;;;0.20;;
75537;SDS011;64121;48.666;8.114;2023-04-01T05:06:29;0.95;;;0.20;;
75537;SDS011;64121;48.666;8.114;2023-04-01T05:08:55;3.20;;;0.30;;
75537;SDS011;64121;48.666;8.114;2023-04-01T05:11:21;0.73;;;0.28;;
75537;SDS011;64121;48.666;8.114;2023-04-01T05:13:46;1.95;;;0.60;;
75537;SDS011;64121;48.666;8.114;2023-04-01T05:16:13;0.98;;;0.30;;
75537;SDS011;64121;48.666;8.114;2023-04-01T05:18:41;1.08;;;0.35;;
75537;SDS011;64121;48.666;8.114;2023-04-01T05:21:06;0.57;;;0.30;;
75537;SDS011;64121;48.666;8.114;2023-04-01T05:23:32;0.63;;;0.30;;
75537;SDS011;64121;48.666;8.114;2023-04-01T05:25:58;2.58;;;0.30;;
75537;SDS011;64121;48.666;8.114;2023-04-01T05:28:23;0.65;;;0.30;;
75537;SDS011;64121;48.666;8.114;2023-04-01T05:30:49;1.67;;;0.55;;
75537;SDS011;64121;48.666;8.114;2023-04-01T05:33:14;1.17;;;0.40;;
75537;SDS011;64121;48.666;8.114;2023-04-01T05:35:41;1.20;;;0.30;;
75537;SDS011;64121;48.666;8.114;2023-04-01T05:38:07;1.27;;;0.40;;
75537;SDS011;64121;48.666;8.114;2023-04-01T05:40:35;2.13;;;0.43;;
75537;SDS011;64121;48.666;8.114;2023-04-01T05:43:01;1.23;;;0.40;;
75537;SDS011;64121;48.666;8.114;2023-04-01T05:45:27;2.63;;;0.77;;
75537;SDS011;64121;48.666;8.114;2023-04-01T05:47:52;1.73;;;0.40;;
75537;SDS011;64121;48.666;8.114;2023-04-01T05:50:18;1.00;;;0.50;;
75537;SDS011;64121;48.666;8.114;2023-04-01T05:52:45;0.98;;;0.40;;
75537;SDS011;64121;48.666;8.114;2023-04-01T05:55:11;1.65;;;0.40;;
75537;SDS011;64121;48.666;8.114;2023-04-01T05:57:37;1.52;;;0.38;;
75537;SDS011;64121;48.666;8.114;2023-04-01T06:00:03;1.40;;;0.50;;
75537;SDS011;64121;48.666;8.114;2023-04-01T06:02:29;1.35;;;0.32;;
75537;SDS011;64121;48.666;8.114;2023-04-01T06:04:58;0.88;;;0.40;;
75537;SDS011;64121;48.666;8.114;2023-04-01T06:07:28;2.65;;;0.50;;
75537;SDS011;64121;48.666;8.114;2023-04-01T06:09:55;1.27;;;0.40;;
75537;SDS011;64121;48.666;8.114;2023-04-01T06:12:27;3.10;;;0.40;;
75537;SDS011;64121;48.666;8.114;2023-04-01T06:15:06;1.38;;;0.43;;
75537;SDS011;64121;48.666;8.114;2023-04-01T06:17:50;1.63;;;0.50;;
75537;SDS011;64121;48.666;8.114;2023-04-01T06:20:25;2.20;;;0.43;;
75537;SDS011;64121;48.666;8.114;2023-04-01T06:23:05;1.55;;;0.40;;
75537;SDS011;64121;48.666;8.114;2023-04-01T06:25:53;0.73;;;0.30;;
75537;SDS011;64121;48.666;8.114;2023-04-01T06:28:49;2.17;;;0.52;;
75537;SDS011;64121;48.666;8.114;2023-04-01T06:31:38;1.90;;;0.52;;
75537;SDS011;64121;48.666;8.114;2023-04-01T06:34:16;3.00;;;0.88;;
75537;SDS011;64121;48.666;8.114;2023-04-01T06:36:55;2.15;;;0.80;;
75537;SDS011;64121;48.666;8.114;2023-04-01T06:39:43;1.63;;;0.52;;
75537;SDS011;64121;48.666;8.114;2023-04-01T06:42:30;2.05;;;0.52;;
75537;SDS011;64121;48.666;8.114;2023-04-01T06:47:58;4.10;;;1.00;;
75537;SDS011;64121;48.666;8.114;2023-04-01T06:50:37;1.90;;;0.70;;
75537;SDS011;64121;48.666;8.114;2023-04-01T06:53:10;3.05;;;0.70;;
75537;SDS011;64121;48.666;8.114;2023-04-01T06:55:41;3.25;;;1.15;;
75537;SDS011;64121;48.666;8.114;2023-04-01T06:58:13;2.03;;;0.43;;
75537;SDS011;64121;48.666;8.114;2023-04-01T07:00:44;2.33;;;0.90;;
75537;SDS011;64121;48.666;8.114;2023-04-01T07:03:16;1.02;;;0.50;;
75537;SDS011;64121;48.666;8.114;2023-04-01T07:05:46;2.08;;;0.50;;
75537;SDS011;64121;48.666;8.114;2023-04-01T07:08:13;2.28;;;0.88;;
75537;SDS011;64121;48.666;8.114;2023-04-01T07:10:43;1.80;;;0.60;;
75537;SDS011;64121;48.666;8.114;2023-04-01T07:13:15;1.08;;;0.47;;
75537;SDS011;64121;48.666;8.114;2023-04-01T07:15:49;1.90;;;0.40;;
75537;SDS011;64121;48.666;8.114;2023-04-01T07:18:25;2.38;;;0.82;;
75537;SDS011;64121;48.666;8.114;2023-04-01T07:20:57;2.85;;;0.60;;
75537;SDS011;64121;48.666;8.114;2023-04-01T07:23:28;3.50;;;0.70;;
75537;SDS011;64121;48.666;8.114;2023-04-01T07:25:58;1.80;;;0.70;;
75537;SDS011;64121;48.666;8.114;2023-04-01T07:28:27;1.33;;;0.57;;
75537;SDS011;64121;48.666;8.114;2023-04-01T07:30:58;2.72;;;0.70;;
75537;SDS011;64121;48.666;8.114;2023-04-01T07:33:32;2.33;;;0.70;;
75537;SDS011;64121;48.666;8.114;2023-04-01T07:36:04;3.30;;;0.70;;
75537;SDS011;64121;48.666;8.114;2023-04-01T07:38:34;1.92;;;0.70;;
75537;SDS011;64121;48.666;8.114;2023-04-01T07:41:08;2.50;;;0.80;;
75537;SDS011;64121;48.666;8.114;2023-04-01T07:43:55;4.53;;;0.75;;
75537;SDS011;64121;48.666;8.114;2023-04-01T07:46:38;5.15;;;3.20;;
75537;SDS011;64121;48.666;8.114;2023-04-01T07:49:15;3.85;;;1.85;;
75537;SDS011;64121;48.666;8.114;2023-04-01T07:51:48;2.88;;;1.27;;
75537;SDS011;64121;48.666;8.114;2023-04-01T07:54:22;3.40;;;1.45;;
75537;SDS011;64121;48.666;8.114;2023-04-01T07:56:55;1.58;;;0.60;;
75537;SDS011;64121;48.666;8.114;2023-04-01T08:02:01;4.28;;;1.00;;
75537;SDS011;64121;48.666;8.114;2023-04-01T08:04:41;3.10;;;1.25;;
75537;SDS011;64121;48.666;8.114;2023-04-01T08:07:18;3.83;;;1.10;;
75537;SDS011;64121;48.666;8.114;2023-04-01T08:09:48;2.67;;;0.90;;
75537;SDS011;64121;48.666;8.114;2023-04-01T08:12:24;3.10;;;1.08;;
75537;SDS011;64121;48.666;8.114;2023-04-01T08:15:07;3.45;;;1.20;;
75537;SDS011;64121;48.666;8.114;2023-04-01T08:17:42;3.53;;;0.68;;
75537;SDS011;64121;48.666;8.114;2023-04-01T08:20:17;2.33;;;0.90;;
75537;SDS011;64121;48.666;8.114;2023-04-01T08:22:51;3.47;;;0.70;;
75537;SDS011;64121;48.666;8.114;2023-04-01T08:25:22;1.95;;;0.70;;
75537;SDS011;64121;48.666;8.114;2023-04-01T08:27:51;3.35;;;0.50;;
75537;SDS011;64121;48.666;8.114;2023-04-01T08:30:25;2.42;;;0.70;;
75537;SDS011;64121;48.666;8.114;2023-04-01T08:32:55;1.95;;;0.65;;
75537;SDS011;64121;48.666;8.114;2023-04-01T08:35:27;1.33;;;0.60;;
75537;SDS011;64121;48.666;8.114;2023-04-01T08:37:55;3.30;;;0.75;;
75537;SDS011;64121;48.666;8.114;2023-04-01T08:43:25;1.73;;;0.50;;
75537;SDS011;64121;48.666;8.114;2023-04-01T08:46:12;1.17;;;0.65;;
75537;SDS011;64121;48.666;8.114;2023-04-01T08:48:58;1.92;;;0.82;;
75537;SDS011;64121;48.666;8.114;2023-04-01T08:51:44;1.67;;;0.50;;
75537;SDS011;64121;48.666;8.114;2023-04-01T08:54:36;1.42;;;0.50;;
75537;SDS011;64121;48.666;8.114;2023-04-01T08:57:11;2.42;;;0.52;;
75537;SDS011;64121;48.666;8.114;2023-04-01T08:59:49;1.05;;;0.57;;
75537;SDS011;64121;48.666;8.114;2023-04-01T09:02:33;3.28;;;0.88;;
75537;SDS011;64121;48.666;8.114;2023-04-01T09:05:44;1.38;;;0.52;;
75537;SDS011;64121;48.666;8.114;2023-04-01T09:08:30;1.73;;;0.75;;
75537;SDS011;64121;48.666;8.114;2023-04-01T09:11:06;2.33;;;0.93;;
75537;SDS011;64121;48.666;8.114;2023-04-01T09:13:45;3.72;;;0.60;;
75537;SDS011;64121;48.666;8.114;2023-04-01T09:19:38;1.87;;;0.83;;
75537;SDS011;64121;48.666;8.114;2023-04-01T09:22:24;2.10;;;0.70;;
75537;SDS011;64121;48.666;8.114;2023-04-01T09:25:15;1.38;;;0.55;;
75537;SDS011;64121;48.666;8.114;2023-04-01T09:27:54;2.30;;;0.88;;
75537;SDS011;64121;48.666;8.114;2023-04-01T09:30:31;1.13;;;0.60;;
75537;SDS011;64121;48.666;8.114;2023-04-01T09:36:06;2.30;;;0.82;;
75537;SDS011;64121;48.666;8.114;2023-04-01T09:38:39;0.93;;;0.50;;
75537;SDS011;64121;48.666;8.114;2023-04-01T09:41:16;1.05;;;0.40;;
75537;SDS011;64121;48.666;8.114;2023-04-01T09:43:57;3.30;;;0.75;;
75537;SDS011;64121;48.666;8.114;2023-04-01T09:46:26;2.53;;;0.80;;
75537;SDS011;64121;48.666;8.114;2023-04-01T09:52:05;2.95;;;1.00;;
75537;SDS011;64121;48.666;8.114;2023-04-01T09:54:44;1.05;;;0.60;;
75537;SDS011;64121;48.666;8.114;2023-04-01T09:57:35;1.60;;;0.82;;
75537;SDS011;64121;48.666;8.114;2023-04-01T10:00:21;1.83;;;0.65;;
75537;SDS011;64121;48.666;8.114;2023-04-01T10:03:15;2.60;;;0.70;;
75537;SDS011;64121;48.666;8.114;2023-04-01T10:06:22;1.65;;;0.70;;
75537;SDS011;64121;48.666;8.114;2023-04-01T10:09:21;1.52;;;0.70;;
75537;SDS011;64121;48.666;8.114;2023-04-01T10:12:28;1.23;;;0.73;;
75537;SDS011;64121;48.666;8.114;2023-04-01T10:15:22;1.33;;;0.52;;
75537;SDS011;64121;48.666;8.114;2023-04-01T10:18:09;2.15;;;0.75;;
75537;SDS011;64121;48.666;8.114;2023-04-01T10:26:52;1.88;;;0.70;;
75537;SDS011;64121;48.666;8.114;2023-04-01T10:32:44;1.63;;;0.50;;
75537;SDS011;64121;48.666;8.114;2023-04-01T10:35:38;1.25;;;0.50;;
75537;SDS011;64121;48.666;8.114;2023-04-01T10:38:35;2.03;;;0.57;;
75537;SDS011;64121;48.666;8.114;2023-04-01T10:41:25;1.42;;;0.73;;
75537;SDS011;64121;48.666;8.114;2023-04-01T10:44:28;2.40;;;0.70;;
75537;SDS011;64121;48.666;8.114;2023-04-01T10:50:13;2.45;;;0.85;;
75537;SDS011;64121;48.666;8.114;2023-04-01T10:53:03;0.82;;;0.40;;
75537;SDS011;64121;48.666;8.114;2023-04-01T10:59:02;2.17;;;0.60;;
75537;SDS011;64121;48.666;8.114;2023-04-01T11:02:05;2.47;;;0.60;;
75537;SDS011;64121;48.666;8.114;2023-04-01T11:05:17;2.60;;;0.60;;
75537;SDS011;64121;48.666;8.114;2023-04-01T11:08:14;1.98;;;0.70;;
75537;SDS011;64121;48.666;8.114;2023-04-01T11:14:26;4.18;;;0.80;;
75537;SDS011;64121;48.666;8.114;2023-04-01T11:20:21;2.33;;;1.10;;
75537;SDS011;64121;48.666;8.114;2023-04-01T11:23:10;2.70;;;1.00;;
75537;SDS011;64121;48.666;8.114;2023-04-01T11:25:54;1.80;;;1.00;;
75537;SDS011;64121;48.666;8.114;2023-04-01T11:28:35;13.68;;;8.35;;
75537;SDS011;64121;48.666;8.114;2023-04-01T11:31:37;14.10;;;7.57;;
75537;SDS011;64121;48.666;8.114;2023-04-01T11:37:32;4.18;;;2.60;;
75537;SDS011;64121;48.666;8.114;2023-04-01T11:40:11;12.27;;;8.23;;
75537;SDS011;64121;48.666;8.114;2023-04-01T11:42:46;2.83;;;1.15;;
75537;SDS011;64121;48.666;8.114;2023-04-01T11:45:19;3.80;;;2.40;;
75537;SDS011;64121;48.666;8.114;2023-04-01T11:47:56;3.97;;;3.25;;
75537;SDS011;64121;48.666;8.114;2023-04-01T11:50:35;4.13;;;1.88;;
75537;SDS011;64121;48.666;8.114;2023-04-01T11:53:20;2.78;;;1.70;;
75537;SDS011;64121;48.666;8.114;2023-04-01T11:55:56;2.58;;;1.38;;
75537;SDS011;64121;48.666;8.114;2023-04-01T11:58:36;2.92;;;2.63;;
75537;SDS011;64121;48.666;8.114;2023-04-01T12:01:20;3.25;;;1.60;;
75537;SDS011;64121;48.666;8.114;2023-04-01T12:06:48;9.60;;;5.45;;
75537;SDS011;64121;48.666;8.114;2023-04-01T12:09:22;4.15;;;2.42;;
75537;SDS011;64121;48.666;8.114;2023-04-01T12:11:57;3.08;;;1.60;;
75537;SDS011;64121;48.666;8.114;2023-04-01T12:14:36;4.32;;;3.00;;
75537;SDS011;64121;48.666;8.114;2023-04-01T12:17:08;5.47;;;4.53;;
75537;SDS011;64121;48.666;8.114;2023-04-01T12:19:46;2.70;;;1.20;;
75537;SDS011;64121;48.666;8.114;2023-04-01T12:22:32;3.67;;;2.05;;
75537;SDS011;64121;48.666;8.114;2023-04-01T12:25:14;3.20;;;1.90;;
75537;SDS011;64121;48.666;8.114;2023-04-01T12:27:51;1.27;;;0.70;;
75537;SDS011;64121;48.666;8.114;2023-04-01T12:30:35;1.63;;;0.90;;
75537;SDS011;64121;48.666;8.114;2023-04-01T12:33:14;1.20;;;0.70;;
75537;SDS011;64121;48.666;8.114;2023-04-01T12:35:53;2.00;;;1.40;;
75537;SDS011;64121;48.666;8.114;2023-04-01T12:38:27;2.38;;;1.20;;
75537;SDS011;64121;48.666;8.114;2023-04-01T12:41:05;2.50;;;1.30;;
75537;SDS011;64121;48.666;8.114;2023-04-01T12:43:55;4.05;;;2.50;;
75537;SDS011;64121;48.666;8.114;2023-04-01T12:46:41;3.30;;;2.45;;
75537;SDS011;64121;48.666;8.114;2023-04-01T12:49:26;1.85;;;1.05;;
75537;SDS011;64121;48.666;8.114;2023-04-01T12:52:08;2.55;;;1.00;;
75537;SDS011;64121;48.666;8.114;2023-04-01T12:54:56;2.88;;;1.38;;
75537;SDS011;64121;48.666;8.114;2023-04-01T12:57:45;2.20;;;0.77;;
75537;SDS011;64121;48.666;8.114;2023-04-01T13:00:38;1.77;;;0.80;;
75537;SDS011;64121;48.666;8.114;2023-04-01T13:03:19;2.65;;;1.00;;
75537;SDS011;64121;48.666;8.114;2023-04-01T13:06:08;2.40;;;1.20;;
75537;SDS011;64121;48.666;8.114;2023-04-01T13:08:43;0.85;;;0.63;;
75537;SDS011;64121;48.666;8.114;2023-04-01T13:11:14;2.58;;;1.00;;
75537;SDS011;64121;48.666;8.114;2023-04-01T13:13:56;5.07;;;2.40;;
75537;SDS011;64121;48.666;8.114;2023-04-01T13:16:36;6.75;;;3.90;;
75537;SDS011;64121;48.666;8.114;2023-04-01T13:19:06;6.25;;;3.38;;
75537;SDS011;64121;48.666;8.114;2023-04-01T13:21:41;2.35;;;0.95;;
75537;SDS011;64121;48.666;8.114;2023-04-01T13:24:15;2.88;;;1.05;;
75537;SDS011;64121;48.666;8.114;2023-04-01T13:26:53;2.15;;;0.98;;
75537;SDS011;64121;48.666;8.114;2023-04-01T13:29:28;5.35;;;1.60;;
75537;SDS011;64121;48.666;8.114;2023-04-01T13:32:04;4.78;;;2.80;;
75537;SDS011;64121;48.666;8.114;2023-04-01T13:34:44;2.78;;;1.00;;
75537;SDS011;64121;48.666;8.114;2023-04-01T13:37:24;1.85;;;0.80;;
75537;SDS011;64121;48.666;8.114;2023-04-01T13:40:02;1.35;;;0.70;;
75537;SDS011;64121;48.666;8.114;2023-04-01T13:42:41;1.75;;;0.77;;
75537;SDS011;64121;48.666;8.114;2023-04-01T13:45:15;1.40;;;0.70;;
75537;SDS011;64121;48.666;8.114;2023-04-01T13:51:00;1.88;;;0.93;;
75537;SDS011;64121;48.666;8.114;2023-04-01T13:56:34;2.00;;;1.00;;
75537;SDS011;64121;48.666;8.114;2023-04-01T14:01:58;1.70;;;1.10;;
75537;SDS011;64121;48.666;8.114;2023-04-01T14:04:45;2.67;;;1.30;;
75537;SDS011;64121;48.666;8.114;2023-04-01T14:07:31;1.67;;;0.90;;
75537;SDS011;64121;48.666;8.114;2023-04-01T14:10:16;3.03;;;1.63;;
75537;SDS011;64121;48.666;8.114;2023-04-01T14:12:49;1.80;;;0.80;;
75537;SDS011;64121;48.666;8.114;2023-04-01T14:15:37;2.17;;;0.93;;
75537;SDS011;64121;48.666;8.114;2023-04-01T14:21:05;1.53;;;1.10;;
75537;SDS011;64121;48.666;8.114;2023-04-01T14:23:42;2.35;;;1.23;;
75537;SDS011;64121;48.666;8.114;2023-04-01T14:26:20;2.13;;;0.90;;
75537;SDS011;64121;48.666;8.114;2023-04-01T14:28:56;1.98;;;0.88;;
75537;SDS011;64121;48.666;8.114;2023-04-01T14:31:39;1.08;;;0.60;;
75537;SDS011;64121;48.666;8.114;2023-04-01T14:34:15;1.05;;;0.55;;
75537;SDS011;64121;48.666;8.114;2023-04-01T14:36:55;0.93;;;0.65;;
75537;SDS011;64121;48.666;8.114;2023-04-01T14:39:43;2.65;;;0.85;;
75537;SDS011;64121;48.666;8.114;2023-04-01T14:42:23;1.88;;;0.80;;
75537;SDS011;64121;48.666;8.114;2023-04-01T14:45:18;1.63;;;0.80;;
75537;SDS011;64121;48.666;8.114;2023-04-01T14:47:58;2.05;;;0.65;;
75537;SDS011;64121;48.666;8.114;2023-04-01T14:50:40;1.88;;;0.88;;
75537;SDS011;64121;48.666;8.114;2023-04-01T14:53:11;2.63;;;1.02;;
75537;SDS011;64121;48.666;8.114;2023-04-01T14:55:49;3.40;;;1.33;;
75537;SDS011;64121;48.666;8.114;2023-04-01T14:58:16;3.17;;;1.10;;
75537;SDS011;64121;48.666;8.114;2023-04-01T15:00:47;2.80;;;1.23;;
75537;SDS011;64121;48.666;8.114;2023-04-01T15:03:18;3.03;;;1.20;;
75537;SDS011;64121;48.666;8.114;2023-04-01T15:05:51;2.53;;;1.30;;
75537;SDS011;64121;48.666;8.114;2023-04-01T15:08:20;1.88;;;0.93;;
75537;SDS011;64121;48.666;8.114;2023-04-01T15:11:00;1.98;;;0.93;;
75537;SDS011;64121;48.666;8.114;2023-04-01T15:13:56;1.80;;;1.00;;
75537;SDS011;64121;48.666;8.114;2023-04-01T15:16:27;1.58;;;1.02;;
75537;SDS011;64121;48.666;8.114;2023-04-01T15:19:01;2.72;;;1.38;;
75537;SDS011;64121;48.666;8.114;2023-04-01T15:21:46;3.45;;;1.20;;
75537;SDS011;64121;48.666;8.114;2023-04-01T15:24:21;1.83;;;1.00;;
75537;SDS011;64121;48.666;8.114;2023-04-01T15:26:56;3.70;;;1.08;;
75537;SDS011;64121;48.666;8.114;2023-04-01T15:29:39;2.83;;;1.30;;
75537;SDS011;64121;48.666;8.114;2023-04-01T15:32:15;1.67;;;1.10;;
75537;SDS011;64121;48.666;8.114;2023-04-01T15:34:45;2.60;;;1.20;;
75537;SDS011;64121;48.666;8.114;2023-04-01T15:37:20;2.75;;;1.10;;
75537;SDS011;64121;48.666;8.114;2023-04-01T15:39:57;2.17;;;0.80;;
75537;SDS011;64121;48.666;8.114;2023-04-01T15:42:38;1.75;;;0.70;;
75537;SDS011;64121;48.666;8.114;2023-04-01T15:45:17;1.75;;;0.73;;
75537;SDS011;64121;48.666;8.114;2023-04-01T15:47:53;1.50;;;0.70;;
75537;SDS011;64121;48.666;8.114;2023-04-01T15:50:28;2.80;;;1.83;;
75537;SDS011;64121;48.666;8.114;2023-04-01T15:53:24;4.00;;;3.00;;
75537;SDS011;64121;48.666;8.114;2023-04-01T15:56:08;2.67;;;1.25;;
75537;SDS011;64121;48.666;8.114;2023-04-01T15:58:47;4.10;;;2.95;;
75537;SDS011;64121;48.666;8.114;2023-04-01T16:01:25;9.75;;;5.13;;
75537;SDS011;64121;48.666;8.114;2023-04-01T16:04:00;8.43;;;7.07;;
75537;SDS011;64121;48.666;8.114;2023-04-01T16:06:47;4.90;;;2.78;;
75537;SDS011;64121;48.666;8.114;2023-04-01T16:09:27;5.82;;;4.20;;
75537;SDS011;64121;48.666;8.114;2023-04-01T16:12:04;10.07;;;7.88;;
75537;SDS011;64121;48.666;8.114;2023-04-01T16:14:41;6.68;;;4.88;;
75537;SDS011;64121;48.666;8.114;2023-04-01T16:17:26;3.92;;;2.72;;
75537;SDS011;64121;48.666;8.114;2023-04-01T16:20:02;1.80;;;1.00;;
75537;SDS011;64121;48.666;8.114;2023-04-01T16:22:33;1.70;;;0.90;;
75537;SDS011;64121;48.666;8.114;2023-04-01T16:25:17;1.95;;;0.95;;
75537;SDS011;64121;48.666;8.114;2023-04-01T16:27:46;2.77;;;1.30;;
75537;SDS011;64121;48.666;8.114;2023-04-01T16:30:23;3.92;;;1.33;;